sensor_id;sensor_type;location;lat;lon;timestamp;temperature;humidity
36654;DHT22;22650;49.350;20.898;2022-12-24T00:01:57;2.40;99.90
36654;DHT22;22650;49.350;20.898;2022-12-24T00:04:32;2.40;99.90
36654;DHT22;22650;49.350;20.898;2022-12-24T00:07:06;2.50;99.90
36654;DHT22;22650;49.350;20.898;2022-12-24T00:09:39;2.50;99.90
36654;DHT22;22650;49.350;20.898;2022-12-24T00:12:13;2.50;99.90
36654;DHT22;22650;49.350;20.898;2022-12-24T00:14:47;2.50;99.90
36654;DHT22;22650;49.350;20.898;2022-12-24T00:17:21;2.50;99.90
36654;DHT22;22650;49.350;20.898;2022-12-24T00:19:56;2.50;99.90
36654;DHT22;22650;49.350;20.898;2022-12-24T00:22:30;2.50;99.90
36654;DHT22;22650;49.350;20.898;2022-12-24T00:25:04;2.50;99.90
36654;DHT22;22650;49.350;20.898;2022-12-24T00:27:38;2.50;99.90
36654;DHT22;22650;49.350;20.898;2022-12-24T00:30:12;2.50;99.90
36654;DHT22;22650;49.350;20.898;2022-12-24T00:32:46;2.50;99.90
36654;DHT22;22650;49.350;20.898;2022-12-24T00:35:21;2.50;99.90
36654;DHT22;22650;49.350;20.898;2022-12-24T00:37:55;2.50;99.90
36654;DHT22;22650;49.350;20.898;2022-12-24T00:40:29;2.50;99.90
36654;DHT22;22650;49.350;20.898;2022-12-24T00:43:03;2.40;99.90
36654;DHT22;22650;49.350;20.898;2022-12-24T00:45:37;2.40;99.90
36654;DHT22;22650;49.350;20.898;2022-12-24T00:48:11;2.50;99.90
36654;DHT22;22650;49.350;20.898;2022-12-24T00:50:46;2.50;99.90
36654;DHT22;22650;49.350;20.898;2022-12-24T00:53:20;2.50;99.90
36654;DHT22;22650;49.350;20.898;2022-12-24T00:55:54;2.50;99.90
36654;DHT22;22650;49.350;20.898;2022-12-24T00:58:28;2.40;99.90
36654;DHT22;22650;49.350;20.898;2022-12-24T01:01:02;2.40;99.90
36654;DHT22;22650;49.350;20.898;2022-12-24T01:03:36;2.40;99.90
36654;DHT22;22650;49.350;20.898;2022-12-24T01:06:13;2.40;99.90
36654;DHT22;22650;49.350;20.898;2022-12-24T01:08:49;2.40;99.90
36654;DHT22;22650;49.350;20.898;2022-12-24T01:11:23;2.40;99.90
36654;DHT22;22650;49.350;20.898;2022-12-24T01:13:57;2.40;99.90
36654;DHT22;22650;49.350;20.898;2022-12-24T01:16:31;2.40;99.90
36654;DHT22;22650;49.350;20.898;2022-12-24T01:19:05;2.40;99.90
36654;DHT22;22650;49.350;20.898;2022-12-24T01:21:40;2.40;99.90
36654;DHT22;22650;49.350;20.898;2022-12-24T01:24:15;2.40;99.90
36654;DHT22;22650;49.350;20.898;2022-12-24T01:26:49;2.40;99.90
36654;DHT22;22650;49.350;20.898;2022-12-24T01:29:23;2.40;99.90
36654;DHT22;22650;49.350;20.898;2022-12-24T01:31:56;2.40;99.90
36654;DHT22;22650;49.350;20.898;2022-12-24T01:34:30;2.40;99.90
36654;DHT22;22650;49.350;20.898;2022-12-24T01:37:06;2.40;99.90
36654;DHT22;22650;49.350;20.898;2022-12-24T01:39:40;2.40;99.90
36654;DHT22;22650;49.350;20.898;2022-12-24T01:42:25;2.40;99.90
36654;DHT22;22650;49.350;20.898;2022-12-24T01:45:46;2.40;99.90
36654;DHT22;22650;49.350;20.898;2022-12-24T01:50:03;2.50;99.90
36654;DHT22;22650;49.350;20.898;2022-12-24T01:52:58;2.50;99.90
36654;DHT22;22650;49.350;20.898;2022-12-24T01:55:36;2.40;99.90
36654;DHT22;22650;49.350;20.898;2022-12-24T01:58:17;2.50;99.90
36654;DHT22;22650;49.350;20.898;2022-12-24T02:00:52;2.50;99.90
36654;DHT22;22650;49.350;20.898;2022-12-24T02:03:26;2.50;99.90
36654;DHT22;22650;49.350;20.898;2022-12-24T02:06:01;2.50;99.90
36654;DHT22;22650;49.350;20.898;2022-12-24T02:08:37;2.60;99.90
36654;DHT22;22650;49.350;20.898;2022-12-24T02:11:16;2.60;99.90
36654;DHT22;22650;49.350;20.898;2022-12-24T02:13:58;2.60;99.90
36654;DHT22;22650;49.350;20.898;2022-12-24T02:16:39;2.60;99.90
36654;DHT22;22650;49.350;20.898;2022-12-24T02:19:34;2.60;99.90
36654;DHT22;22650;49.350;20.898;2022-12-24T02:22:14;2.60;99.90
36654;DHT22;22650;49.350;20.898;2022-12-24T02:25:10;2.50;99.90
36654;DHT22;22650;49.350;20.898;2022-12-24T02:27:54;2.50;99.90
36654;DHT22;22650;49.350;20.898;2022-12-24T02:30:33;2.50;99.90
36654;DHT22;22650;49.350;20.898;2022-12-24T02:33:19;2.40;99.90
36654;DHT22;22650;49.350;20.898;2022-12-24T02:36:00;2.40;99.90
36654;DHT22;22650;49.350;20.898;2022-12-24T02:38:38;2.40;99.90
36654;DHT22;22650;49.350;20.898;2022-12-24T02:41:18;2.50;99.90
36654;DHT22;22650;49.350;20.898;2022-12-24T02:43:55;2.50;99.90
36654;DHT22;22650;49.350;20.898;2022-12-24T02:46:31;2.50;99.90
36654;DHT22;22650;49.350;20.898;2022-12-24T02:49:05;2.40;99.90
36654;DHT22;22650;49.350;20.898;2022-12-24T02:51:39;2.40;99.90
36654;DHT22;22650;49.350;20.898;2022-12-24T02:54:14;2.40;99.90
36654;DHT22;22650;49.350;20.898;2022-12-24T02:57:02;2.40;99.90
36654;DHT22;22650;49.350;20.898;2022-12-24T03:02:56;2.50;99.90
36654;DHT22;22650;49.350;20.898;2022-12-24T03:05:38;2.50;99.90
36654;DHT22;22650;49.350;20.898;2022-12-24T03:08:21;2.50;99.90
36654;DHT22;22650;49.350;20.898;2022-12-24T03:11:01;2.50;99.90
36654;DHT22;22650;49.350;20.898;2022-12-24T03:13:36;2.50;99.90
36654;DHT22;22650;49.350;20.898;2022-12-24T03:16:13;2.40;99.90
36654;DHT22;22650;49.350;20.898;2022-12-24T03:18:50;2.40;99.90
36654;DHT22;22650;49.350;20.898;2022-12-24T03:21:27;2.40;99.90
36654;DHT22;22650;49.350;20.898;2022-12-24T03:24:02;2.40;99.90
36654;DHT22;22650;49.350;20.898;2022-12-24T03:26:36;2.40;99.90
36654;DHT22;22650;49.350;20.898;2022-12-24T03:29:11;2.40;99.90
36654;DHT22;22650;49.350;20.898;2022-12-24T03:31:47;2.50;99.90
36654;DHT22;22650;49.350;20.898;2022-12-24T03:34:22;2.40;99.90
36654;DHT22;22650;49.350;20.898;2022-12-24T03:36:56;2.40;99.90
36654;DHT22;22650;49.350;20.898;2022-12-24T03:39:30;2.40;99.90
36654;DHT22;22650;49.350;20.898;2022-12-24T03:42:04;2.40;99.90
36654;DHT22;22650;49.350;20.898;2022-12-24T03:44:38;2.40;99.90
36654;DHT22;22650;49.350;20.898;2022-12-24T03:47:11;2.40;99.90
36654;DHT22;22650;49.350;20.898;2022-12-24T03:49:46;2.40;99.90
36654;DHT22;22650;49.350;20.898;2022-12-24T03:52:20;2.40;99.90
36654;DHT22;22650;49.350;20.898;2022-12-24T03:54:54;2.40;99.90
36654;DHT22;22650;49.350;20.898;2022-12-24T03:57:28;2.40;99.90
36654;DHT22;22650;49.350;20.898;2022-12-24T04:00:02;2.40;99.90
36654;DHT22;22650;49.350;20.898;2022-12-24T04:02:42;2.40;99.90
36654;DHT22;22650;49.350;20.898;2022-12-24T04:05:19;2.50;99.90
36654;DHT22;22650;49.350;20.898;2022-12-24T04:07:53;2.50;99.90
36654;DHT22;22650;49.350;20.898;2022-12-24T04:10:27;2.50;99.90
36654;DHT22;22650;49.350;20.898;2022-12-24T04:13:00;2.50;99.90
36654;DHT22;22650;49.350;20.898;2022-12-24T04:15:34;2.50;99.90
36654;DHT22;22650;49.350;20.898;2022-12-24T04:18:07;2.50;99.90
36654;DHT22;22650;49.350;20.898;2022-12-24T04:20:43;2.50;99.90
36654;DHT22;22650;49.350;20.898;2022-12-24T04:23:17;2.50;99.90
36654;DHT22;22650;49.350;20.898;2022-12-24T04:25:50;2.50;99.90
36654;DHT22;22650;49.350;20.898;2022-12-24T04:28:24;2.50;99.90
36654;DHT22;22650;49.350;20.898;2022-12-24T04:30:58;2.50;99.90
36654;DHT22;22650;49.350;20.898;2022-12-24T04:33:32;2.40;99.90
36654;DHT22;22650;49.350;20.898;2022-12-24T04:36:09;2.40;99.90
36654;DHT22;22650;49.350;20.898;2022-12-24T04:38:45;2.40;99.90
36654;DHT22;22650;49.350;20.898;2022-12-24T04:41:20;2.40;99.90
36654;DHT22;22650;49.350;20.898;2022-12-24T04:43:56;2.40;99.90
36654;DHT22;22650;49.350;20.898;2022-12-24T04:46:31;2.40;99.90
36654;DHT22;22650;49.350;20.898;2022-12-24T04:49:04;2.40;99.90
36654;DHT22;22650;49.350;20.898;2022-12-24T04:51:39;2.40;99.90
36654;DHT22;22650;49.350;20.898;2022-12-24T04:54:13;2.40;99.90
36654;DHT22;22650;49.350;20.898;2022-12-24T04:56:47;2.40;99.90
36654;DHT22;22650;49.350;20.898;2022-12-24T04:59:21;2.40;99.90
36654;DHT22;22650;49.350;20.898;2022-12-24T05:01:54;2.40;99.90
36654;DHT22;22650;49.350;20.898;2022-12-24T05:04:28;2.40;99.90
36654;DHT22;22650;49.350;20.898;2022-12-24T05:07:04;2.40;99.90
36654;DHT22;22650;49.350;20.898;2022-12-24T05:09:38;2.40;99.90
36654;DHT22;22650;49.350;20.898;2022-12-24T05:12:12;2.40;99.90
36654;DHT22;22650;49.350;20.898;2022-12-24T05:14:45;2.40;99.90
36654;DHT22;22650;49.350;20.898;2022-12-24T05:17:19;2.40;99.90
36654;DHT22;22650;49.350;20.898;2022-12-24T05:19:53;2.40;99.90
36654;DHT22;22650;49.350;20.898;2022-12-24T05:22:28;2.40;99.90
36654;DHT22;22650;49.350;20.898;2022-12-24T05:25:18;2.40;99.90
36654;DHT22;22650;49.350;20.898;2022-12-24T05:28:10;2.40;99.90
36654;DHT22;22650;49.350;20.898;2022-12-24T05:30:43;2.40;99.90
36654;DHT22;22650;49.350;20.898;2022-12-24T05:33:17;2.40;99.90
36654;DHT22;22650;49.350;20.898;2022-12-24T05:35:50;2.40;99.90
36654;DHT22;22650;49.350;20.898;2022-12-24T05:38:26;2.40;99.90
36654;DHT22;22650;49.350;20.898;2022-12-24T05:40:59;2.40;99.90
36654;DHT22;22650;49.350;20.898;2022-12-24T05:43:33;2.40;99.90
36654;DHT22;22650;49.350;20.898;2022-12-24T05:46:09;2.40;99.90
36654;DHT22;22650;49.350;20.898;2022-12-24T05:48:43;2.40;99.90
36654;DHT22;22650;49.350;20.898;2022-12-24T05:51:18;2.40;99.90
36654;DHT22;22650;49.350;20.898;2022-12-24T05:53:54;2.40;99.90
36654;DHT22;22650;49.350;20.898;2022-12-24T05:56:28;2.40;99.90
36654;DHT22;22650;49.350;20.898;2022-12-24T05:59:02;2.40;99.90
36654;DHT22;22650;49.350;20.898;2022-12-24T06:01:36;2.40;99.90
36654;DHT22;22650;49.350;20.898;2022-12-24T06:04:10;2.40;99.90
36654;DHT22;22650;49.350;20.898;2022-12-24T06:06:43;2.40;99.90
36654;DHT22;22650;49.350;20.898;2022-12-24T06:09:19;2.40;99.90
36654;DHT22;22650;49.350;20.898;2022-12-24T06:11:53;2.30;99.90
36654;DHT22;22650;49.350;20.898;2022-12-24T06:14:27;2.30;99.90
36654;DHT22;22650;49.350;20.898;2022-12-24T06:21:06;2.30;99.90
36654;DHT22;22650;49.350;20.898;2022-12-24T06:24:09;2.40;99.90
36654;DHT22;22650;49.350;20.898;2022-12-24T06:26:50;2.40;99.90
36654;DHT22;22650;49.350;20.898;2022-12-24T06:29:25;2.40;99.90
36654;DHT22;22650;49.350;20.898;2022-12-24T06:32:11;2.40;99.90
36654;DHT22;22650;49.350;20.898;2022-12-24T06:35:23;2.40;99.90
36654;DHT22;22650;49.350;20.898;2022-12-24T06:37:58;2.40;99.90
36654;DHT22;22650;49.350;20.898;2022-12-24T06:40:33;2.40;99.90
36654;DHT22;22650;49.350;20.898;2022-12-24T06:43:12;2.40;99.90
36654;DHT22;22650;49.350;20.898;2022-12-24T06:45:49;2.40;99.90
36654;DHT22;22650;49.350;20.898;2022-12-24T06:48:23;2.40;99.90
36654;DHT22;22650;49.350;20.898;2022-12-24T06:51:00;2.40;99.90
36654;DHT22;22650;49.350;20.898;2022-12-24T06:53:34;2.40;99.90
36654;DHT22;22650;49.350;20.898;2022-12-24T06:56:09;2.50;99.90
36654;DHT22;22650;49.350;20.898;2022-12-24T06:58:44;2.50;99.90
36654;DHT22;22650;49.350;20.898;2022-12-24T07:01:19;2.50;99.90
36654;DHT22;22650;49.350;20.898;2022-12-24T07:03:53;2.50;99.90
36654;DHT22;22650;49.350;20.898;2022-12-24T07:06:28;2.50;99.90
36654;DHT22;22650;49.350;20.898;2022-12-24T07:09:03;2.50;99.90
36654;DHT22;22650;49.350;20.898;2022-12-24T07:11:37;2.50;99.90
36654;DHT22;22650;49.350;20.898;2022-12-24T07:14:14;2.50;99.90
36654;DHT22;22650;49.350;20.898;2022-12-24T07:16:49;2.50;99.90
36654;DHT22;22650;49.350;20.898;2022-12-24T07:19:30;2.50;99.90
36654;DHT22;22650;49.350;20.898;2022-12-24T07:22:03;2.50;99.90
36654;DHT22;22650;49.350;20.898;2022-12-24T07:24:46;2.50;99.90
36654;DHT22;22650;49.350;20.898;2022-12-24T07:27:20;2.50;99.90
36654;DHT22;22650;49.350;20.898;2022-12-24T07:29:55;2.50;99.90
36654;DHT22;22650;49.350;20.898;2022-12-24T07:32:28;2.60;99.90
36654;DHT22;22650;49.350;20.898;2022-12-24T07:35:03;2.60;99.90
36654;DHT22;22650;49.350;20.898;2022-12-24T07:37:37;2.60;99.90
36654;DHT22;22650;49.350;20.898;2022-12-24T07:40:11;2.70;99.90
36654;DHT22;22650;49.350;20.898;2022-12-24T07:42:44;2.70;99.90
36654;DHT22;22650;49.350;20.898;2022-12-24T07:45:20;2.70;99.90
36654;DHT22;22650;49.350;20.898;2022-12-24T07:47:54;2.70;99.90
36654;DHT22;22650;49.350;20.898;2022-12-24T07:50:27;2.80;99.90
36654;DHT22;22650;49.350;20.898;2022-12-24T07:53:01;2.80;99.90
36654;DHT22;22650;49.350;20.898;2022-12-24T07:55:35;2.80;99.90
36654;DHT22;22650;49.350;20.898;2022-12-24T07:58:13;2.80;99.90
36654;DHT22;22650;49.350;20.898;2022-12-24T08:00:56;2.80;99.90
36654;DHT22;22650;49.350;20.898;2022-12-24T08:03:30;2.90;99.90
36654;DHT22;22650;49.350;20.898;2022-12-24T08:06:04;2.90;99.90
36654;DHT22;22650;49.350;20.898;2022-12-24T08:08:38;2.90;99.90
36654;DHT22;22650;49.350;20.898;2022-12-24T08:11:12;2.90;99.90
36654;DHT22;22650;49.350;20.898;2022-12-24T08:13:46;3.00;99.90
36654;DHT22;22650;49.350;20.898;2022-12-24T08:16:23;3.00;99.90
36654;DHT22;22650;49.350;20.898;2022-12-24T08:18:57;3.00;99.90
36654;DHT22;22650;49.350;20.898;2022-12-24T08:21:30;3.00;99.90
36654;DHT22;22650;49.350;20.898;2022-12-24T08:24:06;3.00;99.90
36654;DHT22;22650;49.350;20.898;2022-12-24T08:26:40;3.00;99.90
36654;DHT22;22650;49.350;20.898;2022-12-24T08:29:14;2.90;99.90
36654;DHT22;22650;49.350;20.898;2022-12-24T08:31:49;2.90;99.90
36654;DHT22;22650;49.350;20.898;2022-12-24T08:34:28;3.00;99.90
36654;DHT22;22650;49.350;20.898;2022-12-24T08:37:01;3.00;99.90
36654;DHT22;22650;49.350;20.898;2022-12-24T08:39:35;3.00;99.90
36654;DHT22;22650;49.350;20.898;2022-12-24T08:42:20;3.10;99.90
36654;DHT22;22650;49.350;20.898;2022-12-24T08:44:53;3.10;99.90
36654;DHT22;22650;49.350;20.898;2022-12-24T08:47:29;3.20;99.90
36654;DHT22;22650;49.350;20.898;2022-12-24T08:50:03;3.30;99.90
36654;DHT22;22650;49.350;20.898;2022-12-24T08:52:37;3.40;99.90
36654;DHT22;22650;49.350;20.898;2022-12-24T08:55:10;3.50;99.90
36654;DHT22;22650;49.350;20.898;2022-12-24T08:57:44;3.60;99.90
36654;DHT22;22650;49.350;20.898;2022-12-24T09:00:18;3.70;99.90
36654;DHT22;22650;49.350;20.898;2022-12-24T09:02:55;3.80;99.90
36654;DHT22;22650;49.350;20.898;2022-12-24T09:05:29;4.00;99.90
36654;DHT22;22650;49.350;20.898;2022-12-24T09:08:08;4.10;99.90
36654;DHT22;22650;49.350;20.898;2022-12-24T09:10:42;4.20;99.90
36654;DHT22;22650;49.350;20.898;2022-12-24T09:13:15;4.30;99.90
36654;DHT22;22650;49.350;20.898;2022-12-24T09:15:53;4.30;99.90
36654;DHT22;22650;49.350;20.898;2022-12-24T09:18:28;4.30;99.90
36654;DHT22;22650;49.350;20.898;2022-12-24T09:21:04;4.30;99.90
36654;DHT22;22650;49.350;20.898;2022-12-24T09:23:41;4.30;99.90
36654;DHT22;22650;49.350;20.898;2022-12-24T09:26:17;4.40;99.90
36654;DHT22;22650;49.350;20.898;2022-12-24T09:28:52;4.40;99.90
36654;DHT22;22650;49.350;20.898;2022-12-24T09:31:26;4.40;99.90
36654;DHT22;22650;49.350;20.898;2022-12-24T09:34:02;4.40;99.90
36654;DHT22;22650;49.350;20.898;2022-12-24T09:36:36;4.50;99.90
36654;DHT22;22650;49.350;20.898;2022-12-24T09:39:10;4.50;99.90
36654;DHT22;22650;49.350;20.898;2022-12-24T09:41:49;4.60;99.90
36654;DHT22;22650;49.350;20.898;2022-12-24T09:44:34;4.60;99.90
36654;DHT22;22650;49.350;20.898;2022-12-24T09:47:19;4.60;99.90
36654;DHT22;22650;49.350;20.898;2022-12-24T09:50:02;4.60;99.90
36654;DHT22;22650;49.350;20.898;2022-12-24T09:52:40;4.60;99.90
36654;DHT22;22650;49.350;20.898;2022-12-24T09:55:22;4.60;99.90
36654;DHT22;22650;49.350;20.898;2022-12-24T09:57:58;4.60;99.90
36654;DHT22;22650;49.350;20.898;2022-12-24T10:00:35;4.60;99.90
36654;DHT22;22650;49.350;20.898;2022-12-24T10:03:14;4.60;99.90
36654;DHT22;22650;49.350;20.898;2022-12-24T10:06:00;4.70;99.90
36654;DHT22;22650;49.350;20.898;2022-12-24T10:08:55;4.70;99.90
36654;DHT22;22650;49.350;20.898;2022-12-24T10:11:46;4.70;99.90
36654;DHT22;22650;49.350;20.898;2022-12-24T10:14:45;4.70;99.90
36654;DHT22;22650;49.350;20.898;2022-12-24T10:17:40;4.70;99.90
36654;DHT22;22650;49.350;20.898;2022-12-24T10:25:03;4.90;99.90
36654;DHT22;22650;49.350;20.898;2022-12-24T10:27:39;4.90;99.90
36654;DHT22;22650;49.350;20.898;2022-12-24T10:30:15;4.90;99.90
36654;DHT22;22650;49.350;20.898;2022-12-24T10:32:53;4.80;99.90
36654;DHT22;22650;49.350;20.898;2022-12-24T10:35:36;4.80;99.90
36654;DHT22;22650;49.350;20.898;2022-12-24T10:38:23;4.80;99.90
36654;DHT22;22650;49.350;20.898;2022-12-24T10:41:26;4.70;99.90
36654;DHT22;22650;49.350;20.898;2022-12-24T10:44:04;4.70;99.90
36654;DHT22;22650;49.350;20.898;2022-12-24T10:46:38;4.70;99.90
36654;DHT22;22650;49.350;20.898;2022-12-24T10:49:15;4.70;99.90
36654;DHT22;22650;49.350;20.898;2022-12-24T10:51:55;4.70;99.90
36654;DHT22;22650;49.350;20.898;2022-12-24T10:55:06;4.70;99.90
36654;DHT22;22650;49.350;20.898;2022-12-24T10:57:59;4.70;99.90
36654;DHT22;22650;49.350;20.898;2022-12-24T11:00:48;4.70;99.90
36654;DHT22;22650;49.350;20.898;2022-12-24T11:03:45;4.70;99.90
36654;DHT22;22650;49.350;20.898;2022-12-24T11:06:35;4.60;99.90
36654;DHT22;22650;49.350;20.898;2022-12-24T11:09:26;4.60;99.90
36654;DHT22;22650;49.350;20.898;2022-12-24T11:12:03;4.60;99.90
36654;DHT22;22650;49.350;20.898;2022-12-24T11:18:36;4.60;99.90
36654;DHT22;22650;49.350;20.898;2022-12-24T11:21:21;4.50;99.90
36654;DHT22;22650;49.350;20.898;2022-12-24T11:24:28;4.50;99.90
36654;DHT22;22650;49.350;20.898;2022-12-24T11:27:30;4.50;99.90
36654;DHT22;22650;49.350;20.898;2022-12-24T11:30:29;4.50;99.90
36654;DHT22;22650;49.350;20.898;2022-12-24T11:33:17;4.50;99.90
36654;DHT22;22650;49.350;20.898;2022-12-24T11:36:00;4.50;99.90
36654;DHT22;22650;49.350;20.898;2022-12-24T11:38:34;4.50;99.90
36654;DHT22;22650;49.350;20.898;2022-12-24T11:41:10;4.50;99.90
36654;DHT22;22650;49.350;20.898;2022-12-24T11:43:45;4.50;99.90
36654;DHT22;22650;49.350;20.898;2022-12-24T11:46:34;4.50;99.90
36654;DHT22;22650;49.350;20.898;2022-12-24T11:49:15;4.50;99.90
36654;DHT22;22650;49.350;20.898;2022-12-24T11:52:18;4.50;99.90
36654;DHT22;22650;49.350;20.898;2022-12-24T11:55:06;4.50;99.90
36654;DHT22;22650;49.350;20.898;2022-12-24T11:57:53;4.50;99.90
36654;DHT22;22650;49.350;20.898;2022-12-24T12:00:28;4.40;99.90
36654;DHT22;22650;49.350;20.898;2022-12-24T12:03:03;4.50;99.90
36654;DHT22;22650;49.350;20.898;2022-12-24T12:05:43;4.50;99.90
36654;DHT22;22650;49.350;20.898;2022-12-24T12:08:19;4.40;99.90
36654;DHT22;22650;49.350;20.898;2022-12-24T12:10:56;4.40;99.90
36654;DHT22;22650;49.350;20.898;2022-12-24T12:13:31;4.40;99.90
36654;DHT22;22650;49.350;20.898;2022-12-24T12:16:13;4.40;99.90
36654;DHT22;22650;49.350;20.898;2022-12-24T12:18:53;4.30;99.90
36654;DHT22;22650;49.350;20.898;2022-12-24T12:21:52;4.30;99.90
36654;DHT22;22650;49.350;20.898;2022-12-24T12:24:33;4.30;99.90
36654;DHT22;22650;49.350;20.898;2022-12-24T12:27:26;4.30;99.90
36654;DHT22;22650;49.350;20.898;2022-12-24T12:30:06;4.20;99.90
36654;DHT22;22650;49.350;20.898;2022-12-24T12:32:51;4.20;99.90
36654;DHT22;22650;49.350;20.898;2022-12-24T12:35:33;4.20;99.90
36654;DHT22;22650;49.350;20.898;2022-12-24T12:38:10;4.20;99.90
36654;DHT22;22650;49.350;20.898;2022-12-24T12:41:03;4.20;99.90
36654;DHT22;22650;49.350;20.898;2022-12-24T12:43:53;4.20;99.90
36654;DHT22;22650;49.350;20.898;2022-12-24T12:46:40;4.20;99.90
36654;DHT22;22650;49.350;20.898;2022-12-24T12:49:27;4.20;99.90
36654;DHT22;22650;49.350;20.898;2022-12-24T12:52:13;4.20;99.90
36654;DHT22;22650;49.350;20.898;2022-12-24T12:55:00;4.20;99.90
36654;DHT22;22650;49.350;20.898;2022-12-24T12:57:39;4.20;99.90
36654;DHT22;22650;49.350;20.898;2022-12-24T13:00:16;4.20;99.90
36654;DHT22;22650;49.350;20.898;2022-12-24T13:03:20;4.20;99.90
36654;DHT22;22650;49.350;20.898;2022-12-24T13:06:22;4.20;99.90
36654;DHT22;22650;49.350;20.898;2022-12-24T13:09:26;4.30;99.90
36654;DHT22;22650;49.350;20.898;2022-12-24T13:12:29;4.20;99.90
36654;DHT22;22650;49.350;20.898;2022-12-24T13:15:34;4.20;99.90
36654;DHT22;22650;49.350;20.898;2022-12-24T13:21:15;4.20;99.90
36654;DHT22;22650;49.350;20.898;2022-12-24T13:24:04;4.20;99.90
36654;DHT22;22650;49.350;20.898;2022-12-24T13:26:38;4.20;99.90
36654;DHT22;22650;49.350;20.898;2022-12-24T13:29:51;4.20;99.90
36654;DHT22;22650;49.350;20.898;2022-12-24T13:32:49;4.20;99.90
36654;DHT22;22650;49.350;20.898;2022-12-24T13:35:36;4.20;99.90
36654;DHT22;22650;49.350;20.898;2022-12-24T13:38:38;4.20;99.90
36654;DHT22;22650;49.350;20.898;2022-12-24T13:44:29;4.20;99.90
36654;DHT22;22650;49.350;20.898;2022-12-24T13:47:24;4.20;99.90
36654;DHT22;22650;49.350;20.898;2022-12-24T13:50:21;4.10;99.90
36654;DHT22;22650;49.350;20.898;2022-12-24T13:52:55;4.10;99.90
36654;DHT22;22650;49.350;20.898;2022-12-24T13:55:29;4.10;99.90
36654;DHT22;22650;49.350;20.898;2022-12-24T13:58:03;4.10;99.90
36654;DHT22;22650;49.350;20.898;2022-12-24T14:00:41;4.10;99.90
36654;DHT22;22650;49.350;20.898;2022-12-24T14:03:21;4.10;99.90
36654;DHT22;22650;49.350;20.898;2022-12-24T14:06:00;4.20;99.90
36654;DHT22;22650;49.350;20.898;2022-12-24T14:08:37;4.20;99.90
36654;DHT22;22650;49.350;20.898;2022-12-24T14:11:13;4.20;99.90
36654;DHT22;22650;49.350;20.898;2022-12-24T14:14:08;4.30;99.90
36654;DHT22;22650;49.350;20.898;2022-12-24T14:16:48;4.20;99.90
36654;DHT22;22650;49.350;20.898;2022-12-24T14:19:24;4.20;99.90
36654;DHT22;22650;49.350;20.898;2022-12-24T14:22:25;4.20;99.90
36654;DHT22;22650;49.350;20.898;2022-12-24T14:25:03;4.20;99.90
36654;DHT22;22650;49.350;20.898;2022-12-24T14:27:45;4.30;99.90
36654;DHT22;22650;49.350;20.898;2022-12-24T14:30:21;4.50;99.90
36654;DHT22;22650;49.350;20.898;2022-12-24T14:32:55;4.60;99.90
36654;DHT22;22650;49.350;20.898;2022-12-24T14:35:35;4.70;99.90
36654;DHT22;22650;49.350;20.898;2022-12-24T14:38:14;4.80;99.90
36654;DHT22;22650;49.350;20.898;2022-12-24T14:40:55;4.80;99.90
36654;DHT22;22650;49.350;20.898;2022-12-24T14:43:43;4.80;99.90
36654;DHT22;22650;49.350;20.898;2022-12-24T14:46:25;4.80;99.90
36654;DHT22;22650;49.350;20.898;2022-12-24T14:49:06;4.90;99.90
36654;DHT22;22650;49.350;20.898;2022-12-24T14:51:52;5.10;99.90
36654;DHT22;22650;49.350;20.898;2022-12-24T14:54:37;5.10;99.90
36654;DHT22;22650;49.350;20.898;2022-12-24T14:57:19;5.20;99.90
36654;DHT22;22650;49.350;20.898;2022-12-24T14:59:55;5.30;99.90
36654;DHT22;22650;49.350;20.898;2022-12-24T15:02:37;5.50;99.90
36654;DHT22;22650;49.350;20.898;2022-12-24T15:05:14;5.60;99.90
36654;DHT22;22650;49.350;20.898;2022-12-24T15:07:55;5.60;99.90
36654;DHT22;22650;49.350;20.898;2022-12-24T15:10:33;5.60;99.90
36654;DHT22;22650;49.350;20.898;2022-12-24T15:13:14;5.70;99.90
36654;DHT22;22650;49.350;20.898;2022-12-24T15:15:52;5.60;99.90
36654;DHT22;22650;49.350;20.898;2022-12-24T15:18:28;5.60;99.90
36654;DHT22;22650;49.350;20.898;2022-12-24T15:21:07;5.60;99.90
36654;DHT22;22650;49.350;20.898;2022-12-24T15:23:49;5.70;99.90
36654;DHT22;22650;49.350;20.898;2022-12-24T15:44:46;5.90;99.90
36654;DHT22;22650;49.350;20.898;2022-12-24T15:47:29;5.90;99.90
36654;DHT22;22650;49.350;20.898;2022-12-24T16:10:25;5.90;99.90
36654;DHT22;22650;49.350;20.898;2022-12-24T16:13:01;5.90;99.90
36654;DHT22;22650;49.350;20.898;2022-12-24T16:15:43;5.90;99.90
36654;DHT22;22650;49.350;20.898;2022-12-24T16:18:24;5.90;99.90
36654;DHT22;22650;49.350;20.898;2022-12-24T16:21:02;6.00;99.90
36654;DHT22;22650;49.350;20.898;2022-12-24T16:23:38;6.00;99.90
36654;DHT22;22650;49.350;20.898;2022-12-24T16:27:34;5.90;99.90
36654;DHT22;22650;49.350;20.898;2022-12-24T16:30:10;5.90;99.90
36654;DHT22;22650;49.350;20.898;2022-12-24T16:32:46;5.90;99.90
36654;DHT22;22650;49.350;20.898;2022-12-24T16:35:28;5.90;99.90
36654;DHT22;22650;49.350;20.898;2022-12-24T16:38:32;5.90;99.90
36654;DHT22;22650;49.350;20.898;2022-12-24T16:41:59;5.80;99.90
36654;DHT22;22650;49.350;20.898;2022-12-24T16:45:47;5.80;99.90
36654;DHT22;22650;49.350;20.898;2022-12-24T16:48:24;5.80;99.90
36654;DHT22;22650;49.350;20.898;2022-12-24T16:50:59;5.80;99.90
36654;DHT22;22650;49.350;20.898;2022-12-24T16:53:33;5.70;99.90
36654;DHT22;22650;49.350;20.898;2022-12-24T16:56:27;5.70;99.90
36654;DHT22;22650;49.350;20.898;2022-12-24T16:59:01;5.70;99.90
36654;DHT22;22650;49.350;20.898;2022-12-24T17:01:36;5.70;99.90
36654;DHT22;22650;49.350;20.898;2022-12-24T17:04:10;5.70;99.90
36654;DHT22;22650;49.350;20.898;2022-12-24T17:07:13;5.70;99.90
36654;DHT22;22650;49.350;20.898;2022-12-24T17:10:18;5.80;99.90
36654;DHT22;22650;49.350;20.898;2022-12-24T17:13:00;5.70;99.90
36654;DHT22;22650;49.350;20.898;2022-12-24T17:15:49;5.70;99.90
36654;DHT22;22650;49.350;20.898;2022-12-24T17:22:13;5.70;99.90
36654;DHT22;22650;49.350;20.898;2022-12-24T17:24:47;5.60;99.90
36654;DHT22;22650;49.350;20.898;2022-12-24T17:27:21;5.60;99.90
36654;DHT22;22650;49.350;20.898;2022-12-24T17:29:55;5.70;99.90
36654;DHT22;22650;49.350;20.898;2022-12-24T17:32:28;5.70;99.90
36654;DHT22;22650;49.350;20.898;2022-12-24T17:35:04;5.70;99.90
36654;DHT22;22650;49.350;20.898;2022-12-24T17:37:43;5.70;99.90
36654;DHT22;22650;49.350;20.898;2022-12-24T17:40:17;5.70;99.90
36654;DHT22;22650;49.350;20.898;2022-12-24T17:42:50;5.70;99.90
36654;DHT22;22650;49.350;20.898;2022-12-24T17:45:24;5.70;99.90
36654;DHT22;22650;49.350;20.898;2022-12-24T17:47:58;5.70;99.90
36654;DHT22;22650;49.350;20.898;2022-12-24T17:50:36;5.60;99.90
36654;DHT22;22650;49.350;20.898;2022-12-24T17:53:13;5.60;99.90
36654;DHT22;22650;49.350;20.898;2022-12-24T17:55:47;5.60;99.90